Terminal Aerodrome Forecast
Issued by NWS New Orleans/Baton Rouge, LA

Home | Current Version | Previous Version | Text Only | Print | Product List | Glossary On
Versions: 1 2 3 4 5 6 7 8 9 10 11 12 13 14 15 16 17
000
FTUS44 KLIX 291205 AAA
TAFBTR
TAF AMD
KBTR 291205Z 2912/3012 11005KT 6SM BR SCT005 BKN015
     FM291300 14004KT P6SM SCT250
     FM291900 15005KT P6SM VCTS SCT030CB
     FM292300 15003KT P6SM BKN060
     FM300800 VRB03KT P6SM BKN020 OVC060=

USA.gov is the U.S. government's official web portal to all federal, state and local government web resources and services.